Time;durP1;ratioP1;P1;durP2;ratioP2;P2;SDS_P1;SDS_P2;PMS_P1;PMS_P2;Temp;Humidity;BMP_temperature;BMP_pressure;BME280_temperature;BME280_humidity;BME280_pressure;Samples;Min_cycle;Max_cycle;Signal;HPM_P1;HPM_P2
2022/08/24 00:01:16;;;;;;;49.22;45.05;;;19.50;99.90;;;;;;5094723;28;20042;-79
2022/08/24 00:03:43;;;;;;;49.50;45.40;;;19.50;99.90;;;;;;5113327;28;20059;-79
2022/08/24 00:06:13;;;;;;;50.95;46.60;;;19.40;99.90;;;;;;5088503;28;20045;-79
2022/08/24 00:08:40;;;;;;;44.95;41.25;;;19.30;99.90;;;;;;5105581;27;20087;-79
2022/08/24 00:11:06;;;;;;;52.38;48.08;;;19.20;99.90;;;;;;5096286;27;20079;-79
2022/08/24 00:13:33;;;;;;;55.15;50.22;;;19.10;99.90;;;;;;5097234;28;20071;-79
2022/08/24 00:15:59;;;;;;;53.38;48.80;;;19.10;99.90;;;;;;5104412;27;20134;-78
2022/08/24 00:18:26;;;;;;;52.03;47.63;;;19.10;99.90;;;;;;5102242;27;20051;-79
2022/08/24 00:20:52;;;;;;;47.20;43.22;;;19.10;99.90;;;;;;5085229;28;20082;-79
2022/08/24 00:23:18;;;;;;;45.17;41.45;;;19.10;99.90;;;;;;5114620;27;20166;-78
2022/08/24 00:25:44;;;;;;;52.88;48.40;;;19.10;99.90;;;;;;5102913;27;20123;-78
2022/08/24 00:28:09;;;;;;;51.25;46.90;;;19.10;99.90;;;;;;5115972;27;20075;-78
2022/08/24 00:30:36;;;;;;;73.40;66.05;;;19.10;99.90;;;;;;5082410;27;20043;-79
2022/08/24 00:33:02;;;;;;;47.17;43.20;;;19.10;99.90;;;;;;5078624;27;20058;-78
2022/08/24 00:35:28;;;;;;;65.25;59.10;;;19.00;99.90;;;;;;5098480;27;20055;-79
2022/08/24 00:37:54;;;;;;;67.95;61.38;;;19.00;99.90;;;;;;5101084;27;20455;-79
2022/08/24 00:40:23;;;;;;;110.03;81.63;;;19.00;99.90;;;;;;5101409;27;20131;-78
2022/08/24 00:42:49;;;;;;;79.07;70.53;;;18.90;99.90;;;;;;5101349;27;20064;-78
2022/08/24 00:45:17;;;;;;;55.22;50.42;;;18.90;99.90;;;;;;5122256;27;20067;-79
2022/08/24 00:47:51;;;;;;;65.85;59.63;;;18.90;99.90;;;;;;5113745;27;20043;-78
2022/08/24 00:50:24;;;;;;;98.47;80.88;;;18.90;99.90;;;;;;5114051;27;20438;-79
2022/08/24 00:52:56;;;;;;;94.45;79.90;;;18.90;99.90;;;;;;5117175;27;20118;-79
2022/08/24 00:55:32;;;;;;;82.45;73.13;;;18.80;99.90;;;;;;5117651;27;20051;-79
2022/08/24 00:58:09;;;;;;;55.40;50.92;;;18.80;99.90;;;;;;5103294;27;20031;-81
2022/08/24 01:00:42;;;;;;;63.72;57.97;;;18.70;99.90;;;;;;5136006;27;20055;-80
2022/08/24 01:03:08;;;;;;;51.72;47.33;;;18.70;99.90;;;;;;5109190;27;20039;-80
2022/08/24 01:05:36;;;;;;;53.85;49.35;;;18.70;99.90;;;;;;5116311;27;20055;-81
2022/08/24 01:08:08;;;;;;;57.63;52.50;;;18.70;99.90;;;;;;5117253;27;20047;-80
2022/08/24 01:10:43;;;;;;;74.88;67.68;;;18.60;99.90;;;;;;5101189;27;20062;-80
2022/08/24 01:13:12;;;;;;;96.45;84.13;;;18.60;99.90;;;;;;5107318;27;20037;-80
2022/08/24 01:15:45;;;;;;;95.07;80.38;;;18.60;99.90;;;;;;5098610;27;20036;-81
2022/08/24 01:21:13;;;;;;;126.60;93.35;;;18.50;99.90;;;;;;5098498;27;20442;-80
2022/08/24 01:23:40;;;;;;;85.88;77.22;;;18.50;99.90;;;;;;5102362;27;20046;-80
2022/08/24 01:26:10;;;;;;;57.25;52.38;;;18.50;99.90;;;;;;5091337;27;20081;-79
2022/08/24 01:28:41;;;;;;;62.65;57.08;;;18.40;99.90;;;;;;5108874;27;20133;-79
2022/08/24 01:31:07;;;;;;;77.70;69.13;;;18.40;99.90;;;;;;5119701;27;20103;-79
2022/08/24 01:33:33;;;;;;;95.03;74.88;;;18.40;99.90;;;;;;5097715;27;20078;-80
2022/08/24 01:36:40;;;;;;;80.05;71.53;;;18.30;99.90;;;;;;5077341;27;20066;-79
2022/08/24 01:39:17;;;;;;;78.90;70.25;;;18.30;99.90;;;;;;5054614;28;20052;-79
2022/08/24 01:41:43;;;;;;;151.20;97.68;;;18.20;99.90;;;;;;5053534;28;20138;-79
2022/08/24 01:44:09;;;;;;;61.97;56.53;;;18.20;99.90;;;;;;5064452;27;20553;-80
2022/08/24 01:46:35;;;;;;;61.78;56.30;;;18.10;99.90;;;;;;5079856;27;20066;-80
2022/08/24 01:49:04;;;;;;;96.75;84.38;;;18.10;99.90;;;;;;5114097;27;20092;-79
2022/08/24 01:51:31;;;;;;;85.10;76.00;;;18.10;99.90;;;;;;5120179;27;20078;-79
2022/08/24 01:54:01;;;;;;;84.40;75.50;;;18.10;99.90;;;;;;5094957;28;20040;-79
2022/08/24 01:56:27;;;;;;;151.10;105.95;;;18.10;99.90;;;;;;5082343;27;20482;-80
2022/08/24 01:58:53;;;;;;;171.57;111.30;;;18.10;99.90;;;;;;5098728;27;20118;-79
2022/08/24 02:01:19;;;;;;;60.78;55.60;;;18.00;99.90;;;;;;5120525;27;20176;-79
2022/08/24 02:03:45;;;;;;;70.10;64.00;;;18.10;99.90;;;;;;5116654;27;20073;-79
2022/08/24 02:06:11;;;;;;;66.50;60.83;;;18.00;99.90;;;;;;5113241;27;20318;-80
2022/08/24 02:08:37;;;;;;;63.72;58.40;;;18.10;99.90;;;;;;5106605;27;20046;-80
2022/08/24 02:11:07;;;;;;;54.78;50.17;;;18.10;99.90;;;;;;5095517;27;20096;-81
2022/08/24 02:13:34;;;;;;;57.22;52.17;;;18.00;99.90;;;;;;5105845;27;20035;-80
2022/08/24 02:16:01;;;;;;;50.92;46.55;;;18.00;99.90;;;;;;5109319;27;20055;-81
2022/08/24 02:18:27;;;;;;;50.85;46.60;;;17.90;99.90;;;;;;5086520;27;20058;-80
2022/08/24 02:20:53;;;;;;;61.40;56.00;;;17.90;99.90;;;;;;5105382;27;20397;-80
2022/08/24 02:23:19;;;;;;;57.42;52.45;;;17.80;99.90;;;;;;5106499;27;20378;-80
2022/08/24 02:25:46;;;;;;;120.95;83.93;;;17.80;99.90;;;;;;5088377;27;20051;-80
2022/08/24 02:28:12;;;;;;;53.88;49.28;;;17.80;99.90;;;;;;5088217;28;20043;-80
2022/08/24 02:30:39;;;;;;;78.05;69.97;;;17.80;99.90;;;;;;5074270;27;20048;-80
2022/08/24 02:33:06;;;;;;;129.35;90.60;;;17.80;99.90;;;;;;5060904;27;21104;-81
2022/08/24 02:35:33;;;;;;;220.20;112.05;;;17.80;99.90;;;;;;5083174;27;20051;-82
2022/08/24 02:37:59;;;;;;;166.35;98.95;;;17.70;99.90;;;;;;5103393;27;20051;-81
2022/08/24 02:40:26;;;;;;;79.28;70.80;;;17.70;99.90;;;;;;5097672;28;20047;-81
2022/08/24 02:42:51;;;;;;;68.03;61.83;;;17.70;99.90;;;;;;5099635;27;20059;-81
2022/08/24 02:45:18;;;;;;;62.08;56.92;;;17.70;99.90;;;;;;5106228;27;20070;-81
2022/08/24 02:47:44;;;;;;;58.58;53.58;;;17.70;99.90;;;;;;5096492;27;20039;-81
2022/08/24 02:50:16;;;;;;;64.15;58.58;;;17.70;99.90;;;;;;5105594;28;20047;-81
2022/08/24 02:52:43;;;;;;;59.78;54.50;;;17.70;99.90;;;;;;5101093;28;20557;-81
2022/08/24 02:55:13;;;;;;;59.88;54.58;;;17.70;99.90;;;;;;5098144;27;20122;-81
2022/08/24 02:57:38;;;;;;;60.42;55.22;;;17.70;99.90;;;;;;5103405;27;20039;-81
2022/08/24 03:00:08;;;;;;;60.95;55.65;;;17.60;99.90;;;;;;5063858;27;20051;-81
2022/08/24 03:02:34;;;;;;;58.40;53.38;;;17.60;99.90;;;;;;5109286;27;20108;-81
2022/08/24 03:05:00;;;;;;;55.42;50.83;;;17.60;99.90;;;;;;5094744;27;20577;-80
2022/08/24 03:07:27;;;;;;;51.17;46.88;;;17.50;99.90;;;;;;5117340;27;20039;-82
2022/08/24 03:09:53;;;;;;;47.05;43.35;;;17.50;99.90;;;;;;5097938;27;20681;-81
2022/08/24 03:12:20;;;;;;;53.40;48.90;;;17.60;99.90;;;;;;5090310;27;20126;-81
2022/08/24 03:14:45;;;;;;;48.25;44.38;;;17.50;99.90;;;;;;5123558;27;20166;-81
2022/08/24 03:17:11;;;;;;;54.30;49.60;;;17.50;99.90;;;;;;5091961;27;20077;-81
2022/08/24 03:19:37;;;;;;;56.65;51.55;;;17.50;99.90;;;;;;5102842;27;20639;-81
2022/08/24 03:22:03;;;;;;;53.28;48.88;;;17.50;99.90;;;;;;5109026;27;20557;-81
2022/08/24 03:24:29;;;;;;;53.22;48.53;;;17.50;99.90;;;;;;5108536;27;20062;-82
2022/08/24 03:26:55;;;;;;;51.60;46.78;;;17.50;99.90;;;;;;5060553;28;20040;-81
2022/08/24 03:29:21;;;;;;;44.47;40.47;;;17.40;99.90;;;;;;5103588;27;20519;-81
2022/08/24 03:31:47;;;;;;;44.60;40.60;;;17.40;99.90;;;;;;5124183;27;20409;-81
2022/08/24 03:34:13;;;;;;;43.65;39.75;;;17.30;99.90;;;;;;5087599;28;20508;-81
2022/08/24 03:36:40;;;;;;;46.33;42.13;;;17.30;99.90;;;;;;5116425;27;20043;-81
2022/08/24 03:39:09;;;;;;;46.60;42.58;;;17.20;99.90;;;;;;5074738;28;20193;-81
2022/08/24 03:41:38;;;;;;;47.47;43.40;;;17.20;99.90;;;;;;5064195;28;20036;-81
2022/08/24 03:44:04;;;;;;;43.38;39.75;;;17.10;99.90;;;;;;5069116;28;20039;-81
2022/08/24 03:46:35;;;;;;;44.78;40.97;;;17.10;99.90;;;;;;5069766;28;20410;-80
2022/08/24 03:49:05;;;;;;;43.22;39.55;;;17.10;99.90;;;;;;5097779;28;20154;-81
2022/08/24 03:51:31;;;;;;;44.97;41.17;;;17.10;99.90;;;;;;5064810;28;20147;-81
2022/08/24 03:53:58;;;;;;;40.38;36.97;;;17.10;99.90;;;;;;5081977;28;20220;-81
2022/08/24 03:56:25;;;;;;;39.78;36.55;;;17.10;99.90;;;;;;5086818;28;20070;-80
2022/08/24 03:58:51;;;;;;;45.22;41.42;;;17.10;99.90;;;;;;5099593;28;20063;-81
2022/08/24 04:01:17;;;;;;;45.28;41.28;;;17.10;99.90;;;;;;5059722;28;20500;-81
2022/08/24 04:03:46;;;;;;;44.55;40.72;;;17.00;99.90;;;;;;5065333;28;20043;-81
2022/08/24 04:06:14;;;;;;;41.75;38.28;;;17.00;99.90;;;;;;5074301;28;20145;-81
2022/08/24 04:08:41;;;;;;;59.45;53.08;;;17.00;99.90;;;;;;5089759;28;20047;-81
2022/08/24 04:11:18;;;;;;;38.80;35.53;;;17.00;99.90;;;;;;5072451;28;20133;-80
2022/08/24 04:13:45;;;;;;;44.30;40.60;;;17.00;99.90;;;;;;5082808;28;20044;-81
2022/08/24 04:16:14;;;;;;;41.10;37.78;;;16.90;99.90;;;;;;5073714;28;20047;-81
2022/08/24 04:18:40;;;;;;;43.42;39.83;;;17.00;99.90;;;;;;5082076;28;20035;-81
2022/08/24 04:21:19;;;;;;;45.05;41.20;;;17.00;99.90;;;;;;5062799;28;20043;-81
2022/08/24 04:23:46;;;;;;;45.95;41.80;;;16.90;99.90;;;;;;5071005;28;20132;-81
2022/08/24 04:26:11;;;;;;;46.38;42.30;;;16.90;99.90;;;;;;5060685;28;20334;-81
2022/08/24 04:28:38;;;;;;;41.85;38.08;;;16.90;99.90;;;;;;5045884;28;20078;-81
2022/08/24 04:31:05;;;;;;;45.88;41.67;;;16.90;99.90;;;;;;5079645;28;20123;-80
2022/08/24 04:33:31;;;;;;;46.08;42.15;;;16.90;99.90;;;;;;5062574;28;20056;-81
2022/08/24 04:35:58;;;;;;;45.63;41.70;;;16.90;99.90;;;;;;5057381;28;20078;-81
2022/08/24 04:38:24;;;;;;;47.00;42.72;;;16.90;99.90;;;;;;5091103;28;20054;-81
2022/08/24 04:40:50;;;;;;;43.03;39.42;;;16.90;99.90;;;;;;5086445;28;20538;-81
2022/08/24 04:43:16;;;;;;;65.70;58.55;;;16.90;99.90;;;;;;5086380;28;20051;-81
2022/08/24 04:45:46;;;;;;;58.03;52.05;;;17.00;99.90;;;;;;5107664;28;20040;-81
2022/08/24 04:48:14;;;;;;;75.07;62.17;;;16.90;99.90;;;;;;5090674;28;20100;-81
2022/08/24 04:50:42;;;;;;;64.47;57.25;;;16.90;99.90;;;;;;5110146;28;20075;-81
2022/08/24 04:53:09;;;;;;;109.57;74.85;;;16.90;99.90;;;;;;5116486;27;20043;-81
2022/08/24 04:55:47;;;;;;;73.57;63.05;;;16.90;99.90;;;;;;5088319;27;20050;-81
2022/08/24 04:58:15;;;;;;;49.30;44.65;;;16.90;99.90;;;;;;5117169;27;20058;-81
2022/08/24 05:00:42;;;;;;;46.88;42.78;;;16.90;99.90;;;;;;5101593;27;20049;-81
2022/08/24 05:03:11;;;;;;;50.72;46.45;;;16.90;99.90;;;;;;5105159;27;20038;-81
2022/08/24 05:05:55;;;;;;;55.57;50.50;;;16.90;99.90;;;;;;5104542;27;20042;-81
2022/08/24 05:08:20;;;;;;;70.38;63.13;;;17.00;99.90;;;;;;5079391;27;20038;-82
2022/08/24 05:10:47;;;;;;;78.03;69.18;;;17.00;99.90;;;;;;5083940;27;20840;-81
2022/08/24 05:13:14;;;;;;;71.30;64.45;;;17.00;99.90;;;;;;5104303;27;20035;-82
2022/08/24 05:15:42;;;;;;;50.35;46.15;;;17.10;99.90;;;;;;5089467;27;20040;-81
2022/08/24 05:18:07;;;;;;;57.45;52.65;;;17.00;99.90;;;;;;5107460;27;20047;-81
2022/08/24 05:20:40;;;;;;;63.88;57.92;;;17.00;99.90;;;;;;5092455;27;20046;-81
2022/08/24 05:23:12;;;;;;;58.40;53.10;;;17.10;99.90;;;;;;5100078;27;20035;-82
2022/08/24 05:25:39;;;;;;;50.25;45.95;;;17.20;99.90;;;;;;5123141;27;20042;-81
2022/08/24 05:28:05;;;;;;;51.28;46.88;;;17.20;99.90;;;;;;5114979;27;20054;-81
2022/08/24 05:30:31;;;;;;;49.88;45.50;;;17.20;99.90;;;;;;5117971;27;20050;-81
2022/08/24 05:32:57;;;;;;;53.47;48.78;;;17.30;99.90;;;;;;5116759;27;20039;-81
2022/08/24 05:35:23;;;;;;;55.42;50.13;;;17.30;99.90;;;;;;5089285;27;20039;-81
2022/08/24 05:37:49;;;;;;;48.03;44.00;;;17.30;99.90;;;;;;5107328;27;20684;-82
2022/08/24 05:40:17;;;;;;;54.97;50.17;;;17.40;99.90;;;;;;5081823;27;20702;-81
2022/08/24 05:42:43;;;;;;;61.17;55.72;;;17.40;99.90;;;;;;5103064;27;20039;-82
2022/08/24 05:45:12;;;;;;;72.00;64.80;;;17.40;99.90;;;;;;5114919;27;20035;-81
2022/08/24 05:47:38;;;;;;;70.68;63.55;;;17.50;99.90;;;;;;5062054;27;20038;-81
2022/08/24 05:50:05;;;;;;;62.78;57.15;;;17.50;99.90;;;;;;5086329;27;20067;-82
2022/08/24 05:52:33;;;;;;;64.43;58.72;;;17.60;99.90;;;;;;5108216;27;20082;-81
2022/08/24 05:55:00;;;;;;;73.95;66.70;;;17.60;99.90;;;;;;5110498;27;20095;-81
2022/08/24 05:57:30;;;;;;;70.38;63.45;;;17.60;99.90;;;;;;5111674;27;20117;-82
2022/08/24 05:59:56;;;;;;;57.58;52.78;;;17.60;99.90;;;;;;5093711;27;20623;-81
2022/08/24 06:02:22;;;;;;;59.75;54.65;;;17.70;99.90;;;;;;5077515;27;20047;-81
2022/08/24 06:04:48;;;;;;;62.70;57.17;;;17.70;99.90;;;;;;5080253;27;20451;-81
2022/08/24 06:07:14;;;;;;;77.25;70.25;;;17.80;99.90;;;;;;5080174;27;20541;-82
2022/08/24 06:09:40;;;;;;;78.93;71.57;;;17.90;99.90;;;;;;5114755;27;20104;-82
2022/08/24 06:12:08;;;;;;;87.90;79.47;;;18.00;99.90;;;;;;5097693;27;20046;-82
2022/08/24 06:14:35;;;;;;;79.47;72.38;;;18.00;99.90;;;;;;5079967;27;20126;-81
2022/08/24 06:17:07;;;;;;;80.93;73.57;;;18.10;99.90;;;;;;5118337;27;20042;-81
2022/08/24 06:19:34;;;;;;;78.18;71.22;;;18.20;99.90;;;;;;5122838;27;20047;-81
2022/08/24 06:22:00;;;;;;;82.32;75.10;;;18.30;99.90;;;;;;5099895;27;20042;-81
2022/08/24 06:27:29;;;;;;;80.10;73.10;;;18.40;99.90;;;;;;5109048;27;20043;-81
2022/08/24 06:30:02;;;;;;;78.05;71.22;;;18.40;99.90;;;;;;5085772;27;20039;-81
2022/08/24 06:32:28;;;;;;;79.60;72.13;;;18.50;99.90;;;;;;5099097;27;20039;-81
2022/08/24 06:34:55;;;;;;;74.15;67.60;;;18.60;99.90;;;;;;5105969;27;20096;-81
2022/08/24 06:37:25;;;;;;;84.80;77.40;;;18.70;99.90;;;;;;5108333;27;20047;-81
2022/08/24 06:39:55;;;;;;;86.65;78.80;;;18.70;99.90;;;;;;5086892;27;20062;-81
2022/08/24 06:42:23;;;;;;;81.65;74.68;;;18.80;99.90;;;;;;5090104;27;20050;-82
2022/08/24 06:44:50;;;;;;;82.30;74.90;;;18.90;99.90;;;;;;5091227;27;20042;-81
2022/08/24 06:47:16;;;;;;;85.50;78.13;;;18.90;99.90;;;;;;5122002;27;20047;-81
2022/08/24 06:49:41;;;;;;;84.32;76.88;;;19.00;99.90;;;;;;5110608;27;20049;-81
2022/08/24 06:52:09;;;;;;;86.53;79.10;;;19.10;99.90;;;;;;5095473;27;20042;-81
2022/08/24 06:54:38;;;;;;;84.32;77.03;;;19.20;99.90;;;;;;5083878;27;20138;-82
2022/08/24 06:57:08;;;;;;;78.32;71.68;;;19.30;99.90;;;;;;5115755;27;20034;-81
2022/08/24 06:59:33;;;;;;;;;;;19.40;99.90;;;;;;5104249;27;20087;-81
2022/08/24 07:02:00;;;;;;;78.45;71.80;;;19.40;99.90;;;;;;5112522;27;19962;-82
2022/08/24 07:04:27;;;;;;;69.65;63.75;;;19.50;99.90;;;;;;5101677;27;20644;-81
2022/08/24 07:06:53;;;;;;;74.18;67.80;;;19.60;99.90;;;;;;5099060;27;20078;-81
2022/08/24 07:09:23;;;;;;;67.50;61.65;;;19.80;99.90;;;;;;5111084;27;20043;-81
2022/08/24 07:11:50;;;;;;;69.95;63.88;;;19.80;99.90;;;;;;5086943;27;20236;-81
2022/08/24 07:14:20;;;;;;;66.10;60.47;;;20.00;99.90;;;;;;5108197;27;20442;-83
2022/08/24 07:16:46;;;;;;;;;;;20.10;99.90;;;;;;5102361;27;20034;-81
2022/08/24 07:19:11;;;;;;;47.63;43.70;;;20.20;99.90;;;;;;5110979;27;20281;-81
2022/08/24 07:21:37;;;;;;;43.72;40.05;;;20.40;99.90;;;;;;5092662;27;20054;-80
2022/08/24 07:24:03;;;;;;;37.10;34.15;;;20.60;99.90;;;;;;5094751;27;20070;-80
2022/08/24 07:26:30;;;;;;;40.30;36.58;;;20.80;99.90;;;;;;5080850;27;20073;-80
2022/08/24 07:29:04;;;;;;;42.40;38.95;;;20.90;99.90;;;;;;5101146;27;20218;-80
2022/08/24 07:31:38;;;;;;;43.75;40.03;;;21.10;99.90;;;;;;5100439;27;20038;-80
2022/08/24 07:34:06;;;;;;;46.08;42.15;;;21.30;99.90;;;;;;5117500;27;20556;-83
2022/08/24 07:36:32;;;;;;;41.67;38.28;;;21.50;99.90;;;;;;5091079;27;20047;-81
2022/08/24 07:38:59;;;;;;;39.03;35.70;;;21.70;99.90;;;;;;5108460;27;20119;-81
2022/08/24 07:41:26;;;;;;;30.95;28.27;;;21.90;99.90;;;;;;5063751;27;20043;-82
2022/08/24 07:43:56;;;;;;;27.65;25.15;;;22.10;99.90;;;;;;5093637;27;20066;-82
2022/08/24 07:46:22;;;;;;;;;;;22.30;99.90;;;;;;5095729;27;20098;-82
2022/08/24 07:48:48;;;;;;;26.20;23.55;;;22.50;99.90;;;;;;5092989;27;19919;-82
2022/08/24 07:51:17;;;;;;;22.75;20.55;;;22.60;99.90;;;;;;5078708;27;20038;-82
2022/08/24 07:53:43;;;;;;;22.40;20.43;;;22.70;99.90;;;;;;5091560;27;20351;-82
2022/08/24 07:56:09;;;;;;;21.95;19.80;;;23.00;99.90;;;;;;5100598;27;20457;-82
2022/08/24 07:58:39;;;;;;;20.60;18.73;;;23.10;99.90;;;;;;5094043;27;20142;-82
2022/08/24 08:01:08;;;;;;;17.00;15.40;;;23.20;99.90;;;;;;5115869;27;20050;-81
2022/08/24 08:03:34;;;;;;;17.70;15.95;;;23.40;99.90;;;;;;5078976;27;20045;-81
2022/08/24 08:06:03;;;;;;;16.20;13.18;;;23.60;99.90;;;;;;5101483;27;20043;-80
2022/08/24 08:08:31;;;;;;;13.25;11.98;;;23.80;99.90;;;;;;5100990;27;20035;-79
2022/08/24 08:10:57;;;;;;;15.23;13.63;;;23.90;99.90;;;;;;5105951;27;20039;-79
2022/08/24 08:13:23;;;;;;;14.57;13.18;;;24.00;99.90;;;;;;5089380;27;20051;-80
2022/08/24 08:15:49;;;;;;;16.63;14.75;;;24.20;99.90;;;;;;5111701;27;20077;-79
2022/08/24 08:18:18;;;;;;;17.08;15.43;;;24.40;99.90;;;;;;5094002;27;20092;-79
2022/08/24 08:20:44;;;;;;;16.10;14.40;;;24.50;99.90;;;;;;5095490;27;20039;-79
2022/08/24 08:25:56;;;;;;;19.48;17.63;;;24.70;99.90;;;;;;5111293;27;20081;-79
2022/08/24 08:28:24;;;;;;;15.35;13.70;;;24.90;99.90;;;;;;5102083;27;20649;-79
2022/08/24 08:30:51;;;;;;;16.13;13.52;;;24.90;99.90;;;;;;5114619;27;20412;-78
2022/08/24 08:33:17;;;;;;;13.77;12.43;;;25.00;99.90;;;;;;5087420;27;20050;-79
2022/08/24 08:35:43;;;;;;;13.60;12.07;;;25.10;99.90;;;;;;5098002;27;20042;-79
2022/08/24 08:38:10;;;;;;;12.85;11.57;;;25.20;99.90;;;;;;5121159;27;20039;-79
2022/08/24 08:40:58;;;;;;;16.40;13.13;;;25.20;99.90;;;;;;5102380;27;20486;-79
2022/08/24 08:43:44;;;;;;;13.88;12.55;;;25.30;99.90;;;;;;5101623;27;20113;-79
2022/08/24 08:46:26;;;;;;;15.75;14.13;;;25.50;99.90;;;;;;5116593;27;20473;-78
2022/08/24 08:49:01;;;;;;;14.57;12.40;;;25.50;99.90;;;;;;5102849;27;20130;-81
2022/08/24 08:51:49;;;;;;;13.02;11.73;;;25.50;99.90;;;;;;5121898;27;20055;-81
2022/08/24 08:54:28;;;;;;;11.70;10.32;;;25.60;99.90;;;;;;5102460;27;20425;-80
2022/08/24 08:57:15;;;;;;;12.60;11.30;;;25.70;99.90;;;;;;5117485;27;20550;-79
2022/08/24 09:00:21;;;;;;;15.77;11.32;;;25.80;99.90;;;;;;5114506;27;20070;-78
2022/08/24 09:03:20;;;;;;;11.85;10.65;;;25.90;99.90;;;;;;5122713;27;20070;-79
2022/08/24 09:06:04;;;;;;;10.98;8.95;;;26.00;99.90;;;;;;5106544;27;20070;-79
2022/08/24 09:09:08;;;;;;;11.82;9.38;;;26.20;99.90;;;;;;5103374;27;20043;-81
2022/08/24 09:12:03;;;;;;;9.48;8.55;;;26.30;99.90;;;;;;5099546;27;20054;-80
2022/08/24 09:15:06;;;;;;;9.63;7.72;;;26.40;99.90;;;;;;5120196;27;20572;-79
2022/08/24 09:18:02;;;;;;;10.50;6.20;;;26.50;99.90;;;;;;5097019;27;21379;-79
2022/08/24 09:20:34;;;;;;;9.98;7.68;;;26.70;99.90;;;;;;5121911;27;20691;-79
2022/08/24 09:23:11;;;;;;;8.30;7.43;;;26.80;99.90;;;;;;5105369;27;20512;-78
2022/08/24 09:26:01;;;;;;;10.10;9.10;;;26.90;99.90;;;;;;5120760;27;20060;-79
2022/08/24 09:28:36;;;;;;;9.90;8.48;;;26.90;99.90;;;;;;5125784;27;20392;-79
2022/08/24 09:31:27;;;;;;;9.50;7.20;;;27.00;99.90;;;;;;5112900;27;20493;-79
2022/08/24 09:34:04;;;;;;;8.02;7.22;;;27.10;99.90;;;;;;5120170;27;20555;-82
2022/08/24 09:36:54;;;;;;;9.18;6.53;;;27.30;99.90;;;;;;5096378;27;20130;-81
2022/08/24 09:39:38;;;;;;;7.43;5.85;;;27.40;99.90;;;;;;5069564;28;20050;-82
2022/08/24 09:42:25;;;;;;;7.72;5.40;;;27.40;99.90;;;;;;5080734;28;20051;-82
2022/08/24 09:45:26;;;;;;;9.10;6.05;;;27.50;99.90;;;;;;5088448;28;20791;-83
2022/08/24 09:48:10;;;;;;;8.35;6.55;;;27.60;96.40;;;;;;5011617;28;20452;-81
2022/08/24 09:50:48;;;;;;;9.23;6.05;;;27.60;99.90;;;;;;5074935;28;20178;-81
2022/08/24 09:53:28;;;;;;;10.52;7.50;;;27.60;99.90;;;;;;5086538;28;20048;-82
2022/08/24 09:56:06;;;;;;;8.68;6.88;;;27.80;99.90;;;;;;5076370;28;20043;-81
2022/08/24 09:58:53;;;;;;;9.35;8.20;;;27.80;98.80;;;;;;5091376;28;20631;-81
2022/08/24 10:01:24;;;;;;;10.55;7.00;;;27.80;93.60;;;;;;5076875;28;20098;-79
2022/08/24 10:04:14;;;;;;;9.02;7.75;;;27.90;97.10;;;;;;5090453;28;20040;-79
2022/08/24 10:06:52;;;;;;;8.35;6.30;;;27.90;97.00;;;;;;5074663;28;20032;-79
2022/08/24 10:09:47;;;;;;;7.78;6.95;;;28.00;97.10;;;;;;5071296;28;20137;-78
2022/08/24 10:12:25;;;;;;;13.07;7.68;;;28.00;97.80;;;;;;5072907;28;20035;-78
2022/08/24 10:15:13;;;;;;;8.25;6.47;;;28.10;97.40;;;;;;5070516;28;20052;-78
2022/08/24 10:18:09;;;;;;;11.95;8.23;;;28.20;97.30;;;;;;5076554;28;20138;-78
2022/08/24 10:21:23;;;;;;;10.93;6.78;;;28.30;95.50;;;;;;5059459;28;20043;-78
2022/08/24 10:23:52;;;;;;;9.35;8.32;;;28.30;96.30;;;;;;5066086;28;20071;-79
2022/08/24 10:26:40;;;;;;;8.93;6.40;;;28.40;95.70;;;;;;5071299;28;20126;-78
2022/08/24 10:29:30;;;;;;;8.23;7.13;;;28.40;97.10;;;;;;5072949;28;20050;-80
2022/08/24 10:32:17;;;;;;;10.82;8.80;;;28.50;95.40;;;;;;5072257;28;20445;-79
2022/08/24 10:35:02;;;;;;;9.48;7.65;;;28.60;94.40;;;;;;5068829;28;20078;-80
2022/08/24 10:41:14;;;;;;;9.20;5.53;;;28.70;93.30;;;;;;5113274;27;20073;-77
2022/08/24 10:43:48;;;;;;;9.40;6.82;;;28.80;95.60;;;;;;5120444;27;20519;-78
2022/08/24 10:46:38;;;;;;;11.27;5.95;;;28.80;94.60;;;;;;5118502;27;20051;-77
2022/08/24 10:49:06;;;;;;;8.93;5.57;;;28.90;92.50;;;;;;5100006;27;20039;-79
2022/08/24 10:51:53;;;;;;;6.57;3.92;;;28.80;93.20;;;;;;5092634;27;21837;-78
2022/08/24 10:54:20;;;;;;;7.47;6.13;;;28.90;92.80;;;;;;5119574;27;20039;-78
2022/08/24 10:57:07;;;;;;;7.75;5.97;;;29.00;92.50;;;;;;5098712;27;20070;-79
2022/08/24 10:59:52;;;;;;;8.57;3.70;;;29.00;92.00;;;;;;5114962;27;20069;-79
2022/08/24 11:02:35;;;;;;;3.90;2.38;;;29.00;94.70;;;;;;5099817;27;20048;-78
2022/08/24 11:05:13;;;;;;;4.45;2.45;;;29.20;93.50;;;;;;5098122;27;20052;-78
2022/08/24 11:07:59;;;;;;;5.68;3.50;;;29.30;92.30;;;;;;5112426;27;20088;-79
2022/08/24 11:10:29;;;;;;;3.60;2.50;;;29.40;86.40;;;;;;5095685;27;20050;-78
2022/08/24 11:13:12;;;;;;;4.82;2.50;;;29.40;91.30;;;;;;5115954;27;20162;-78
2022/08/24 11:15:55;;;;;;;6.47;3.25;;;29.40;90.80;;;;;;5097533;27;20051;-80
2022/08/24 11:18:21;;;;;;;4.75;3.03;;;29.40;83.90;;;;;;5115243;27;20157;-78
2022/08/24 11:20:50;;;;;;;4.35;2.30;;;29.30;87.50;;;;;;5107050;27;20125;-78
2022/08/24 11:23:23;;;;;;;7.65;2.67;;;29.30;87.30;;;;;;5103348;27;20070;-80
2022/08/24 11:25:58;;;;;;;3.97;2.20;;;29.30;88.40;;;;;;5112483;27;20050;-80
2022/08/24 11:28:41;;;;;;;4.68;2.72;;;29.50;88.90;;;;;;5127085;27;20043;-77
2022/08/24 11:31:39;;;;;;;4.80;2.97;;;29.60;87.60;;;;;;5101695;27;20496;-77
2022/08/24 11:34:13;;;;;;;5.97;3.30;;;29.60;86.50;;;;;;5115989;27;20047;-78
2022/08/24 11:36:39;;;;;;;4.47;2.80;;;29.50;86.60;;;;;;5099336;27;20050;-78
2022/08/24 11:39:30;;;;;;;5.47;2.90;;;29.60;88.70;;;;;;5112303;27;20051;-80
2022/08/24 11:42:27;;;;;;;3.78;2.20;;;29.70;88.40;;;;;;5102365;27;20284;-78
2022/08/24 11:45:36;;;;;;;7.90;2.15;;;29.90;88.60;;;;;;5112320;27;20038;-78
2022/08/24 11:48:30;;;;;;;3.65;2.50;;;30.00;86.60;;;;;;5083687;28;20443;-79
2022/08/24 11:51:08;;;;;;;2.78;2.15;;;30.10;85.70;;;;;;5039301;28;20044;-79
2022/08/24 11:53:43;;;;;;;3.25;2.10;;;30.20;78.60;;;;;;5109643;27;20051;-78
2022/08/24 11:56:32;;;;;;;3.90;2.08;;;30.20;80.70;;;;;;5099804;27;20666;-77
2022/08/24 11:59:05;;;;;;;5.53;2.33;;;30.30;80.80;;;;;;5115390;27;20043;-77
2022/08/24 12:01:39;;;;;;;5.03;2.42;;;30.30;83.10;;;;;;5122922;27;20035;-79
2022/08/24 12:04:15;;;;;;;3.67;2.10;;;30.30;79.70;;;;;;5117350;27;20096;-77
2022/08/24 12:06:52;;;;;;;4.00;2.20;;;30.30;81.20;;;;;;5120227;27;20413;-77
2022/08/24 12:09:36;;;;;;;2.25;1.83;;;30.30;80.20;;;;;;5107236;27;20042;-77
2022/08/24 12:12:29;;;;;;;4.53;1.92;;;30.40;80.20;;;;;;5119113;27;20035;-78
2022/08/24 12:15:11;;;;;;;2.30;1.70;;;30.30;81.00;;;;;;5104331;27;20042;-78
2022/08/24 12:18:03;;;;;;;4.63;1.95;;;30.10;83.70;;;;;;5119828;27;20051;-78
2022/08/24 12:20:45;;;;;;;5.63;2.00;;;29.80;82.70;;;;;;5100081;27;20042;-78
2022/08/24 12:23:25;;;;;;;3.78;2.08;;;29.60;82.30;;;;;;5116659;27;20207;-78
2022/08/24 12:26:02;;;;;;;3.50;2.50;;;29.50;84.30;;;;;;5107894;27;20031;-78
2022/08/24 12:28:39;;;;;;;3.17;2.70;;;29.40;86.40;;;;;;5113284;27;20548;-78
2022/08/24 12:31:15;;;;;;;4.93;2.45;;;29.30;84.50;;;;;;5100248;27;20066;-78
2022/08/24 12:33:51;;;;;;;4.18;2.90;;;29.10;83.20;;;;;;5114387;27;20054;-76
2022/08/24 12:36:30;;;;;;;5.65;2.30;;;29.20;85.40;;;;;;5121613;27;20162;-80
2022/08/24 12:39:06;;;;;;;3.65;2.25;;;29.30;86.40;;;;;;5120943;27;20054;-81
2022/08/24 12:41:36;;;;;;;4.38;2.20;;;29.50;85.70;;;;;;5123010;27;20051;-81
2022/08/24 12:44:11;;;;;;;3.75;2.33;;;29.70;86.50;;;;;;5102944;27;20039;-81
2022/08/24 12:46:38;;;;;;;3.22;2.20;;;29.90;85.00;;;;;;5125778;27;20043;-81
2022/08/24 12:49:16;;;;;;;4.43;2.25;;;30.10;84.20;;;;;;5088168;27;20035;-82
2022/08/24 12:51:57;;;;;;;2.78;2.40;;;30.20;83.30;;;;;;5100027;27;20035;-81
2022/08/24 12:54:42;;;;;;;4.88;2.20;;;30.30;80.30;;;;;;5119073;27;20039;-79
2022/08/24 12:57:14;;;;;;;4.22;1.85;;;30.40;81.20;;;;;;5100844;27;20381;-78
2022/08/24 12:59:51;;;;;;;4.50;2.20;;;30.40;78.50;;;;;;5104518;27;20047;-80
2022/08/24 13:02:17;;;;;;;4.25;1.73;;;30.50;79.90;;;;;;5117474;27;20054;-79
2022/08/24 13:04:49;;;;;;;3.10;2.00;;;30.60;81.20;;;;;;5103039;27;20031;-79
2022/08/24 13:07:17;;;;;;;3.45;1.85;;;30.70;78.20;;;;;;5099198;27;20536;-78
2022/08/24 13:09:59;;;;;;;3.33;1.80;;;30.80;74.70;;;;;;5121023;27;20031;-77
2022/08/24 13:12:37;;;;;;;3.17;2.00;;;30.80;77.60;;;;;;5115731;27;20514;-77